ADDS METAR Data INFO
IDs: Format: Raw Decoded Include TAF

Data at: 1532 UTC 25 Feb 2018

KOWP 251515Z AUTO 12004KT 10SM CLR 06/04 A3010 RMK AO2 T00610038
KOWP 251455Z AUTO 00000KT 10SM CLR 05/04 A3010 RMK AO2 T00520042
KOWP 251435Z AUTO 00000KT 10SM CLR 03/03 A3010 RMK AO2 T00340026
KOWP 251415Z AUTO 00000KT 7SM CLR 02/01 A3009 RMK AO2 T00170009
KOWP 251355Z AUTO 00000KT 7SM CLR 00/00 A3009 RMK AO2 T00031003
KOWP 251335Z AUTO 00000KT 4SM BR CLR 00/M01 A3008 RMK AO2 T00001007
KOWP 251315Z AUTO 00000KT 4SM BR CLR 00/M01 A3007 RMK AO2 T00001007
KOWP 251255Z AUTO 00000KT 7SM CLR 00/00 A3006 RMK AO2 T00041001
KOWP 251235Z AUTO 00000KT 7SM CLR 00/00 A3006 RMK AO2 T00031003
KOWP 251215Z AUTO 00000KT 10SM CLR 01/00 A3005 RMK AO2 T00080000
KOWP 251155Z AUTO 00000KT 7SM CLR 00/M01 A3003 RMK AO2 70024 T00001006 10026 20000
KOWP 251135Z AUTO 19003KT 4SM BR CLR 00/00 A3003 RMK AO2 T00021003
KOWP 251115Z AUTO 00000KT 7SM CLR 01/00 A3002 RMK AO2 T00100000
KOWP 251055Z AUTO 00000KT 5SM BR CLR 01/01 A3001 RMK AO2 T00120005
KOWP 251035Z AUTO 00000KT 5SM BR CLR 00/00 A3001 RMK AO2 T00041005
KOWP 251015Z AUTO 00000KT 10SM CLR 01/00 A3001 RMK AO2 T00120002
KOWP 250955Z AUTO 00000KT 10SM CLR 01/00 A3001 RMK AO2 T00110003
KOWP 250935Z AUTO 00000KT 7SM CLR 01/00 A3001 RMK AO2 T00061002
KOWP 250915Z AUTO 00000KT 7SM CLR 01/00 A3002 RMK AO2 T00100000
KOWP 250855Z AUTO 00000KT 10SM CLR 01/00 A3002 RMK AO2 T00120003
KOWP 250835Z AUTO 00000KT 10SM CLR 01/00 A3003 RMK AO2 T00081003
KOWP 250815Z AUTO 00000KT 10SM CLR 01/00 A3002 RMK AO2 T00130001
KOWP 250755Z AUTO 00000KT 10SM CLR 02/00 A3002 RMK AO2 T00150002
KOWP 250735Z AUTO 00000KT 10SM CLR 02/00 A3002 RMK AO2 T00170003
KOWP 250715Z AUTO 00000KT 10SM CLR 02/01 A3002 RMK AO2 T00180005
KOWP 250655Z AUTO 00000KT 10SM CLR 02/01 A3002 RMK AO2 T00240013
KOWP 250635Z AUTO 00000KT 10SM CLR 02/00 A3002 RMK AO2 T00160003
KOWP 250615Z AUTO 00000KT 10SM CLR 02/01 A3002 RMK AO2 T00210006
KOWP 250555Z AUTO 00000KT 10SM CLR 02/00 A3001 RMK AO2 T00180002 10090 20015 401300015
KOWP 250535Z AUTO 00000KT 10SM CLR 02/00 A3002 RMK AO2 T00191001
KOWP 250515Z AUTO 18003KT 10SM CLR 04/01 A3001 RMK AO2 T00370011
KOWP 250455Z AUTO 00000KT 10SM CLR 04/02 A3001 RMK AO2 T00410016
KOWP 250435Z AUTO 00000KT 10SM CLR 05/02 A3001 RMK AO2 T00500018
KOWP 250415Z AUTO 00000KT 10SM CLR 05/02 A3001 RMK AO2 T00500016
KOWP 250355Z AUTO 00000KT 10SM CLR 06/02 A3001 RMK AO2 T00550020
KOWP 250335Z AUTO 00000KT 10SM CLR 06/02 A3000 RMK AO2 T00590020
KOWP 250315Z AUTO 00000KT 10SM CLR 06/02 A3000 RMK AO2 T00570022
KOWP 250255Z AUTO 00000KT 10SM CLR 06/02 A2998 RMK AO2 T00610022
KOWP 250235Z AUTO 00000KT 10SM CLR 07/02 A2997 RMK AO2 T00650024
KOWP 250215Z AUTO 00000KT 10SM CLR 07/03 A2996 RMK AO2 T00660026
KOWP 250155Z AUTO 00000KT 10SM CLR 07/03 A2996 RMK AO2 T00680030
KOWP 250135Z AUTO 00000KT 10SM SCT038 07/03 A2995 RMK AO2 T00710030
KOWP 250115Z AUTO 29003KT 10SM BKN038 08/03 A2994 RMK AO2 T00750031
KOWP 250055Z AUTO 29004KT 10SM SCT042 08/03 A2994 RMK AO2 T00770031
KOWP 250035Z AUTO 29004KT 10SM BKN042 08/03 A2993 RMK AO2 T00810032
KOWP 250015Z AUTO 29005KT 10SM BKN042 09/03 A2991 RMK AO2 T00870033
KOWP 242355Z AUTO 29005KT 10SM BKN044 09/04 A2990 RMK AO2 T00900035 10130 20062
KOWP 242335Z AUTO 29007KT 10SM SCT025 SCT035 OVC044 09/04 A2989 RMK AO2 T00930039
KOWP 242315Z AUTO 30008KT 10SM SCT022 BKN032 OVC039 10/05 A2988 RMK AO2 T00960045
KOWP 242255Z AUTO 32006KT 10SM SCT020 BKN027 OVC033 10/05 A2986 RMK AO2 T01000052
KOWP 242235Z AUTO 29010G14KT 10SM OVC027 10/05 A2984 RMK AO2 T00990048
KOWP 242215Z AUTO 30007G16KT 260V320 10SM OVC025 10/05 A2984 RMK AO2 T00990047
KOWP 242155Z AUTO 30011G15KT 10SM OVC027 11/06 A2983 RMK AO2 T01100056
KOWP 242135Z AUTO 30010G16KT 10SM BKN024 OVC031 12/06 A2981 RMK AO2 T01200062
KOWP 242115Z AUTO 29008KT 250V320 10SM SCT024 13/07 A2979 RMK AO2 T01300070
KOWP 242055Z AUTO 26006G15KT 10SM SCT015 12/07 A2977 RMK AO2 T01220070
KOWP 242035Z AUTO 28011G16KT 10SM BKN013 BKN019 11/08 A2977 RMK AO2 T01130075
KOWP 242015Z AUTO 30009KT 10SM OVC011 11/08 A2977 RMK AO2 T01080080
KOWP 241955Z AUTO 28007KT 10SM OVC009 10/09 A2978 RMK AO2 T01000090
KOWP 241935Z AUTO 29007G16KT 10SM BKN007 OVC012 09/09 A2979 RMK AO2 T00930089
KOWP 241915Z AUTO 27008KT 10SM OVC007 10/10 A2979 RMK AO2 T00990095
KOWP 241855Z AUTO 29007G14KT 10SM OVC005 09/08 A2979 RMK AO2 T00850081
KOWP 241835Z AUTO 28007KT 10SM OVC003 08/07 A2979 RMK AO2 T00780073
KOWP 241815Z AUTO 27008G14KT 7SM OVC003 07/06 A2982 RMK AO2 T00660062
KOWP 241755Z AUTO 29004KT 3SM -RA BKN003 BKN024 OVC039 06/06 A2983 RMK AO2 LTG DSNT E P0005 60024 T00620058 10062 20056
KOWP 241735Z AUTO 29007KT 7SM RA SCT003 BKN033 OVC039 06/06 A2985 RMK AO2 LTG DSNT NE P0005 T00600055
KOWP 241715Z AUTO 29005KT 4SM -RA BKN003 BKN010 OVC015 06/06 A2983 RMK AO2 LTG DSNT NE AND E P0005 T00610057
KOWP 241655Z AUTO 25007KT 2 1/2SM -RA BKN003 BKN042 OVC070 06/06 A2987 RMK AO2 LTG DSNT NE AND E P0009 T00610057
KOWP 241635Z AUTO 00000KT 7SM -RA SCT003 BKN037 OVC075 06/06 A2980 RMK AO2 LTG DSNT N THRU S P0005 T00600056
KOWP 241615Z AUTO 05005KT 2 1/2SM VCTSRA SCT002 BKN026 OVC037 06/06 A2980 RMK AO2 LTG DSNT ALQS P0004 T00580055
KOWP 241555Z AUTO 29005KT 1 1/2SM +TSRA BKN002 BKN011 OVC020 06/05 A2987 RMK AO2 LTG DSNT ALQS P0010 T00580053
KOWP 241535Z AUTO 30006KT 1 1/4SM +TSRA OVC002 06/06 A2990 RMK AO2 LTG DSNT ALQS P0003 T00600055
KOWP 241515Z AUTO 12003KT 3/4SM -VCTSRA OVC002 06/05 A2984 RMK AO2 LTG DSNT ALQS T00570053
KOWP 241455Z AUTO 01003KT 2 1/2SM BR OVC002 06/05 A2985 RMK AO2 LTG DSNT SE THRU W T00580054
KOWP 241435Z AUTO 06006KT 3SM BR OVC004 06/06 A2982 RMK AO2 LTG DSNT SE THRU SW T00590055
KOWP 241415Z AUTO 05004KT 5SM BR OVC004 06/05 A2984 RMK AO2 LTG DSNT SE THRU SW T00570052
KOWP 241355Z AUTO 04005KT 5SM BR BKN004 OVC020 06/05 A2985 RMK AO2 LTG DSNT S T00560051
KOWP 241335Z AUTO 02004KT 4SM BR SCT002 BKN006 OVC020 06/05 A2988 RMK AO2 LTG DSNT SE AND S T00570052
KOWP 241315Z AUTO 00000KT 4SM BR SCT002 BKN006 OVC018 06/05 A2991 RMK AO2 LTG DSNT S T00560051
KOWP 241255Z AUTO 00000KT 2 1/2SM BR SCT001 BKN004 OVC016 06/05 A2992 RMK AO2 LTG DSNT S T00560051
KOWP 241235Z AUTO 00000KT 2SM BR OVC002 06/05 A2992 RMK AO2 T00560051
KOWP 241215Z AUTO 00000KT 1/2SM FG OVC002 06/05 A2994 RMK AO2 T00560051
KOWP 241155Z AUTO 00000KT 1SM BR OVC002 06/05 A2994 RMK AO2 70082 T00560051 10060 20056
KOWP 241135Z AUTO 00000KT 3/4SM BR OVC002 06/05 A2994 RMK AO2 T00570052
KOWP 241115Z AUTO 00000KT 1/2SM FG OVC002 06/05 A2993 RMK AO2 T00570052
KOWP 241055Z AUTO 09003KT 1/2SM FG OVC002 06/05 A2992 RMK AO2 T00570052
KOWP 241035Z AUTO 00000KT 1/2SM FG OVC002 06/05 A2994 RMK AO2 T00570052
KOWP 241015Z AUTO 00000KT 1/2SM FG OVC002 06/05 A2994 RMK AO2 T00570052
KOWP 240955Z AUTO 00000KT 1/2SM FG OVC002 06/05 A2994 RMK AO2 T00570052
KOWP 240935Z AUTO 00000KT 3/4SM BR OVC002 06/05 A2994 RMK AO2 T00570051
KOWP 240915Z AUTO 00000KT 1SM BR OVC002 06/05 A2996 RMK AO2 T00570051
KOWP 240855Z AUTO 36003KT 1 1/4SM BR OVC002 06/05 A2996 RMK AO2 T00580052
KOWP 240835Z AUTO 00000KT 1 3/4SM BR OVC002 06/05 A2997 RMK AO2 T00590052
KOWP 240815Z AUTO 00000KT 3SM BR OVC002 06/05 A2997 RMK AO2 LTG DSNT NE AND E T00590053
KOWP 240755Z AUTO 00000KT 5SM BR OVC002 06/05 A2997 RMK AO2 LTG DSNT E AND SE T00580052
KOWP 240735Z AUTO 35003KT 5SM BR OVC002 06/05 A2998 RMK AO2 LTG DSNT E T00590053
KOWP 240715Z AUTO 00000KT 4SM BR OVC002 06/05 A2999 RMK AO2 LTG DSNT NE AND E T00600053
KOWP 240655Z AUTO 02004KT 5SM -VCTSRA BKN004 OVC008 06/05 A2999 RMK AO2 T00600053
KOWP 240635Z AUTO 00000KT 5SM -RA OVC004 06/06 A3001 RMK AO2 LTG DSNT E AND SE T00600055
KOWP 240615Z AUTO 35003KT 3SM -VCTSRA OVC004 06/05 A3002 RMK AO2 LTG DSNT E AND SE T00600054
KOWP 240555Z AUTO 01003KT 4SM DZ OVC004 06/05 A3001 RMK AO2 LTG DSNT E AND SE 60030 T00600054 10060 20057 400600030
KOWP 240535Z AUTO 02004KT 7SM OVC004 06/05 A3001 RMK AO2 LTG DSNT E AND SE T00600053
KOWP 240515Z AUTO 03005KT 10SM OVC004 06/05 A3002 RMK AO2 LTG DSNT SE T00600053
KOWP 240455Z AUTO 04007KT 10SM OVC004 06/05 A3002 RMK AO2 LTG DSNT E AND SE T00600052
KOWP 240435Z AUTO 04007KT 10SM -RA OVC004 06/05 A3002 RMK AO2 LTG DSNT E THRU S T00580051
KOWP 240415Z AUTO 05005KT 10SM -DZ OVC004 06/05 A3004 RMK AO2 LTG DSNT E T00580051
KOWP 240355Z AUTO 03007KT 10SM -RA OVC004 06/05 A3004 RMK AO2 LTG DSNT E AND SE P0001 T00570050
KOWP 240335Z AUTO 02008KT 10SM DZ BKN004 OVC015 06/05 A3005 RMK AO2 LTG DSNT E AND S P0001 T00570050